createdAt,value
2022-08-22T00:02:23.685Z,101024.91
2022-08-22T00:02:42.672Z,101064.34
2022-08-22T00:02:49.335Z,101058.80
2022-08-22T00:02:58.997Z,101034.71
2022-08-22T00:04:43.464Z,101026.61
2022-08-22T00:07:16.184Z,101027.73
2022-08-22T00:09:29.352Z,101027.88
2022-08-22T00:11:49.843Z,101034.60
2022-08-22T00:14:10.285Z,101046.02
2022-08-22T00:16:29.994Z,101044.70
2022-08-22T00:18:49.728Z,101043.85
2022-08-22T00:21:14.560Z,101045.07
2022-08-22T00:23:23.030Z,101042.23
2022-08-22T00:25:36.831Z,101040.85
2022-08-22T00:27:55.008Z,101039.01
2022-08-22T00:30:05.807Z,101030.17
2022-08-22T00:32:20.664Z,101024.30
2022-08-22T00:34:54.203Z,101016.33
2022-08-22T00:37:29.067Z,101011.08
2022-08-22T00:39:36.558Z,101009.66
2022-08-22T00:41:49.623Z,101013.23
2022-08-22T00:43:51.465Z,101022.09
2022-08-22T00:46:38.150Z,101023.92
2022-08-22T00:49:08.437Z,101023.30
2022-08-22T00:51:39.715Z,101016.63
2022-08-22T00:53:46.487Z,100999.08
2022-08-22T00:56:20.052Z,100991.27
2022-08-22T00:58:30.741Z,100987.30
2022-08-22T01:00:39.387Z,100994.45
2022-08-22T01:03:05.814Z,101007.18
2022-08-22T01:05:30.236Z,101011.27
2022-08-22T01:07:52.812Z,101006.65
2022-08-22T01:10:00.536Z,101009.59
2022-08-22T01:15:23.975Z,101013.98
2022-08-22T01:17:25.639Z,101014.52
2022-08-22T01:19:55.554Z,101004.59
2022-08-22T01:22:31.591Z,101004.12
2022-08-22T01:25:13.919Z,101011.85
2022-08-22T01:27:36.498Z,101013.96
2022-08-22T01:29:50.027Z,101013.88
2022-08-22T01:32:14.274Z,101022.71
2022-08-22T01:34:34.110Z,101021.32
2022-08-22T01:37:12.739Z,101024.64
2022-08-22T01:39:49.213Z,101023.62
2022-08-22T01:42:05.901Z,101016.72
2022-08-22T01:44:34.129Z,101000.25
2022-08-22T01:47:00.295Z,100988.03
2022-08-22T01:49:10.689Z,100984.95
2022-08-22T01:51:15.167Z,100978.61
2022-08-22T01:53:39.889Z,100974.36
2022-08-22T01:55:53.031Z,100972.01
2022-08-22T01:58:21.153Z,100968.59
2022-08-22T02:00:35.325Z,100967.91
2022-08-22T02:02:58.683Z,100971.89
2022-08-22T02:05:24.686Z,100966.05
2022-08-22T02:07:57.296Z,100960.77
2022-08-22T02:10:11.665Z,100961.24
2022-08-22T02:12:21.982Z,100968.07
2022-08-22T02:14:32.957Z,100962.17
2022-08-22T02:16:44.343Z,100958.49
2022-08-22T02:18:54.860Z,100957.44
2022-08-22T02:21:45.083Z,100951.36
2022-08-22T02:23:55.956Z,100957.33
2022-08-22T02:26:08.551Z,100964.12
2022-08-22T02:28:12.879Z,100959.19
2022-08-22T02:30:26.552Z,100960.70
2022-08-22T02:32:40.457Z,100971.02
2022-08-22T02:34:42.355Z,100969.60
2022-08-22T02:36:48.855Z,100961.59
2022-08-22T02:39:16.303Z,100957.80
2022-08-22T02:41:38.355Z,100962.70
2022-08-22T02:43:58.175Z,100967.70
2022-08-22T02:46:03.937Z,100966.80
2022-08-22T02:48:32.593Z,100972.45
2022-08-22T02:50:58.139Z,100968.17
2022-08-22T02:53:02.533Z,100967.19
2022-08-22T02:55:35.698Z,100964.59
2022-08-22T02:57:45.826Z,100970.95
2022-08-22T03:00:31.844Z,100962.54
2022-08-22T03:02:38.198Z,100945.47
2022-08-22T03:04:39.810Z,100940.73
2022-08-22T03:07:02.146Z,100937.98
2022-08-22T03:09:16.153Z,100942.46
2022-08-22T03:11:22.271Z,100952.55
2022-08-22T03:13:38.067Z,100966.07
2022-08-22T03:15:55.207Z,100975.32
2022-08-22T03:18:08.397Z,100966.67
2022-08-22T03:20:14.849Z,100960.71
2022-08-22T03:22:30.129Z,100959.20
2022-08-22T03:25:09.920Z,100957.85
2022-08-22T03:27:32.169Z,100969.03
2022-08-22T03:29:38.461Z,100971.61
2022-08-22T03:32:05.293Z,100972.59
2022-08-22T03:34:23.585Z,100978.02
2022-08-22T03:36:27.421Z,100978.36
2022-08-22T03:38:34.751Z,100977.00
2022-08-22T03:40:53.965Z,100970.77
2022-08-22T03:43:38.231Z,100969.02
2022-08-22T03:45:54.755Z,100964.23
2022-08-22T03:48:05.050Z,100959.27
2022-08-22T03:50:38.754Z,100959.20
2022-08-22T03:53:03.096Z,100968.73
2022-08-22T03:55:37.961Z,100976.52
2022-08-22T03:58:23.911Z,100981.09
2022-08-22T04:00:58.703Z,100976.65
2022-08-22T04:03:06.441Z,100979.73
2022-08-22T04:05:31.971Z,100980.59
2022-08-22T04:07:50.253Z,100970.33
2022-08-22T04:09:57.851Z,100963.80
2022-08-22T04:12:18.552Z,100960.21
2022-08-22T04:14:59.619Z,100961.39
2022-08-22T04:17:01.353Z,100963.82
2022-08-22T04:19:15.965Z,100961.60
2022-08-22T04:21:53.055Z,100954.70
2022-08-22T04:24:13.215Z,100947.08
2022-08-22T04:26:27.167Z,100946.27
2022-08-22T04:28:34.689Z,100946.55
2022-08-22T04:31:17.318Z,100953.39
2022-08-22T04:33:30.614Z,100959.60
2022-08-22T04:35:42.082Z,100960.86
2022-08-22T04:37:53.941Z,100964.66
2022-08-22T04:40:16.906Z,100973.94
2022-08-22T04:42:35.858Z,100979.63
2022-08-22T04:44:43.435Z,100982.93
2022-08-22T04:47:00.100Z,100979.02
2022-08-22T04:49:08.163Z,100984.89
2022-08-22T04:51:40.390Z,100979.77
2022-08-22T04:53:48.182Z,100975.36
2022-08-22T04:55:58.997Z,100966.05
2022-08-22T04:58:26.947Z,100958.20
2022-08-22T05:00:54.605Z,100955.66
2022-08-22T05:02:57.597Z,100952.48
2022-08-22T05:05:21.994Z,100949.39
2022-08-22T05:07:35.805Z,100949.98
2022-08-22T05:09:43.291Z,100947.01
2022-08-22T05:11:49.291Z,100939.91
2022-08-22T05:13:55.813Z,100938.71
2022-08-22T05:16:01.392Z,100934.74
2022-08-22T05:18:30.066Z,100928.35
2022-08-22T05:20:32.155Z,100926.36
2022-08-22T05:22:37.830Z,100925.11
2022-08-22T05:24:46.495Z,100931.62
2022-08-22T05:26:53.403Z,100936.54
2022-08-22T05:29:02.431Z,100941.00
2022-08-22T05:31:18.695Z,100941.36
2022-08-22T05:33:29.435Z,100946.84
2022-08-22T05:35:47.192Z,100946.55
2022-08-22T05:37:53.353Z,100943.75
2022-08-22T05:39:58.521Z,100939.15
2022-08-22T05:42:06.912Z,100933.95
2022-08-22T05:44:20.632Z,100933.83
2022-08-22T05:46:43.211Z,100933.66
2022-08-22T05:48:48.406Z,100926.31
2022-08-22T05:51:23.506Z,100920.27
2022-08-22T05:53:30.939Z,100925.36
2022-08-22T05:56:00.033Z,100925.65
2022-08-22T05:58:39.034Z,100924.11
2022-08-22T06:00:43.724Z,100924.42
2022-08-22T06:03:05.163Z,100929.64
2022-08-22T06:06:00.143Z,100924.96
2022-08-22T06:08:20.382Z,100921.45
2022-08-22T06:10:39.053Z,100922.34
2022-08-22T06:13:05.053Z,100920.98
2022-08-22T06:15:20.977Z,100927.02
2022-08-22T06:21:19.086Z,100927.10
2022-08-22T06:24:00.108Z,100922.66
2022-08-22T06:26:02.472Z,100915.52
2022-08-22T06:28:08.297Z,100911.38
2022-08-22T06:30:13.737Z,100909.65
2022-08-22T06:32:59.482Z,100912.25
2022-08-22T06:35:08.048Z,100906.05
2022-08-22T06:37:17.037Z,100909.91
2022-08-22T06:39:20.525Z,100912.62
2022-08-22T06:41:25.636Z,100915.13
2022-08-22T06:43:38.140Z,100916.08
2022-08-22T06:45:40.695Z,100920.02
2022-08-22T06:47:53.751Z,100925.73
2022-08-22T06:50:02.127Z,100929.48
2022-08-22T06:52:08.544Z,100933.20
2022-08-22T06:54:16.977Z,100931.83
2022-08-22T06:56:40.829Z,100935.77
2022-08-22T06:58:46.127Z,100931.31
2022-08-22T07:01:11.107Z,100932.73
2022-08-22T07:03:20.459Z,100934.89
2022-08-22T07:05:26.638Z,100937.13
2022-08-22T07:07:28.697Z,100933.64
2022-08-22T07:09:37.154Z,100931.48
2022-08-22T07:11:41.079Z,100931.39
2022-08-22T07:13:45.852Z,100936.27
2022-08-22T07:15:54.086Z,100936.63
2022-08-22T07:18:01.857Z,100932.39
2022-08-22T07:20:19.074Z,100932.75
2022-08-22T07:22:30.330Z,100932.69
2022-08-22T07:24:33.078Z,100931.32
2022-08-22T07:27:02.261Z,100928.70
2022-08-22T07:29:23.094Z,100925.80
2022-08-22T07:32:07.585Z,100922.06
2022-08-22T07:34:23.164Z,100924.53
2022-08-22T07:36:50.900Z,100926.39
2022-08-22T07:39:00.984Z,100921.41
2022-08-22T07:41:11.739Z,100920.59
2022-08-22T07:44:03.121Z,100920.09
2022-08-22T07:46:30.926Z,100914.31
2022-08-22T07:48:48.639Z,100906.34
2022-08-22T07:51:05.780Z,100902.82
2022-08-22T07:53:20.825Z,100900.48
2022-08-22T07:55:24.726Z,100899.20
2022-08-22T07:57:35.652Z,100896.86
2022-08-22T07:59:39.338Z,100894.23
2022-08-22T08:01:49.484Z,100896.05
2022-08-22T08:03:59.110Z,100898.45
2022-08-22T08:06:01.565Z,100898.52
2022-08-22T08:08:13.775Z,100897.98
2022-08-22T08:10:24.087Z,100893.23
2022-08-22T08:12:38.676Z,100893.10
2022-08-22T08:14:42.574Z,100889.38
2022-08-22T08:16:49.742Z,100892.06
2022-08-22T08:18:57.042Z,100895.37
2022-08-22T08:21:03.624Z,100900.45
2022-08-22T08:23:09.180Z,100898.31
2022-08-22T08:25:15.043Z,100900.28
2022-08-22T08:27:40.189Z,100902.14
2022-08-22T08:29:48.219Z,100894.11
2022-08-22T08:31:49.951Z,100892.33
2022-08-22T08:33:59.066Z,100892.95
2022-08-22T08:36:11.324Z,100893.37
2022-08-22T08:38:16.556Z,100887.25
2022-08-22T08:40:24.192Z,100883.14
2022-08-22T08:42:31.795Z,100883.81
2022-08-22T08:44:37.459Z,100880.56
2022-08-22T08:47:07.627Z,100873.52
2022-08-22T08:59:10.820Z,100877.29
2022-08-22T09:04:53.719Z,100869.98
2022-08-22T09:10:49.155Z,100859.65
2022-08-22T09:12:56.461Z,100854.11
2022-08-22T09:15:31.003Z,100846.27
2022-08-22T09:17:48.023Z,100835.52
2022-08-22T09:20:19.419Z,100837.67
2022-08-22T09:22:33.514Z,100839.84
2022-08-22T09:25:11.895Z,100840.77
2022-08-22T09:27:31.304Z,100844.84
2022-08-22T09:29:33.032Z,100847.46
2022-08-22T09:31:52.649Z,100843.17
2022-08-22T09:34:05.943Z,100848.58
2022-08-22T09:36:18.071Z,100849.75
2022-08-22T09:38:36.969Z,100851.35
2022-08-22T09:40:52.027Z,100852.58
2022-08-22T09:43:07.298Z,100853.96
2022-08-22T09:45:32.794Z,100851.92
2022-08-22T09:47:50.217Z,100848.81
2022-08-22T09:49:58.963Z,100842.70
2022-08-22T09:52:33.803Z,100843.89
2022-08-22T09:54:48.310Z,100844.91
2022-08-22T09:57:09.725Z,100841.33
2022-08-22T09:59:46.078Z,100847.38
2022-08-22T10:02:00.946Z,100844.30
2022-08-22T10:04:56.369Z,100846.65
2022-08-22T10:07:17.981Z,100840.53
2022-08-22T10:09:31.374Z,100835.86
2022-08-22T10:11:45.687Z,100838.06
2022-08-22T10:14:01.212Z,100833.58
2022-08-22T10:16:39.517Z,100837.59
2022-08-22T10:18:54.721Z,100839.06
2022-08-22T10:21:23.262Z,100826.53
2022-08-22T10:24:06.936Z,100821.48
2022-08-22T10:26:23.064Z,100826.08
2022-08-22T10:28:49.245Z,100835.39
2022-08-22T10:31:25.354Z,100841.05
2022-08-22T10:33:33.440Z,100832.42
2022-08-22T10:36:23.849Z,100839.54
2022-08-22T10:38:27.853Z,100845.80
2022-08-22T10:40:38.689Z,100838.02
2022-08-22T10:42:53.654Z,100834.77
2022-08-22T10:45:23.699Z,100832.98
2022-08-22T10:47:58.789Z,100839.61
2022-08-22T10:50:10.914Z,100839.34
2022-08-22T10:52:21.601Z,100837.08
2022-08-22T10:55:09.641Z,100836.66
2022-08-22T10:57:34.016Z,100830.46
2022-08-22T11:00:45.986Z,100822.14
2022-08-22T11:02:54.738Z,100821.00
2022-08-22T11:08:56.465Z,100810.08
2022-08-22T11:11:07.179Z,100807.95
2022-08-22T11:13:42.255Z,100807.36
2022-08-22T11:16:09.088Z,100801.67
2022-08-22T11:18:40.268Z,100800.48
2022-08-22T11:20:47.673Z,100803.05
2022-08-22T11:23:01.326Z,100807.65
2022-08-22T11:25:26.882Z,100809.30
2022-08-22T11:28:11.686Z,100811.48
2022-08-22T11:30:18.346Z,100808.98
2022-08-22T11:32:42.420Z,100802.74
2022-08-22T11:34:50.088Z,100798.14
2022-08-22T11:36:58.552Z,100798.92
2022-08-22T11:39:17.977Z,100799.90
2022-08-22T11:41:58.808Z,100801.80
2022-08-22T11:44:18.470Z,100806.52
2022-08-22T11:46:31.237Z,100807.14
2022-08-22T11:48:47.873Z,100809.63
2022-08-22T11:51:15.741Z,100811.60
2022-08-22T11:53:38.902Z,100814.26
2022-08-22T11:56:07.690Z,100807.39
2022-08-22T11:58:21.278Z,100801.58
2022-08-22T12:00:44.390Z,100792.65
2022-08-22T12:03:32.959Z,100785.96
2022-08-22T12:05:43.821Z,100784.76
2022-08-22T12:08:11.433Z,100784.15
2022-08-22T12:10:20.211Z,100786.78
2022-08-22T12:12:24.845Z,100781.79
2022-08-22T12:14:54.685Z,100781.83
2022-08-22T12:17:55.558Z,100781.76
2022-08-22T12:20:27.320Z,100784.58
2022-08-22T12:22:54.148Z,100787.85
2022-08-22T12:25:04.739Z,100789.96
2022-08-22T12:27:12.332Z,100794.17
2022-08-22T12:29:33.525Z,100793.41
2022-08-22T12:31:42.312Z,100793.05
2022-08-22T12:34:04.782Z,100791.94
2022-08-22T12:36:18.493Z,100791.19
2022-08-22T12:38:27.846Z,100793.95
2022-08-22T12:41:07.304Z,100793.43
2022-08-22T12:43:28.541Z,100793.27
2022-08-22T12:45:56.113Z,100791.45
2022-08-22T12:48:27.860Z,100785.12
2022-08-22T12:50:57.243Z,100786.00
2022-08-22T12:53:18.131Z,100787.71
2022-08-22T12:55:41.043Z,100784.23
2022-08-22T12:57:50.568Z,100780.37
2022-08-22T13:00:05.548Z,100778.13
2022-08-22T13:02:24.619Z,100776.89
2022-08-22T13:04:33.348Z,100777.27
2022-08-22T13:06:42.202Z,100771.27
2022-08-22T13:08:51.272Z,100770.41
2022-08-22T13:11:01.469Z,100768.27
2022-08-22T13:13:12.043Z,100769.71
2022-08-22T13:19:17.964Z,100767.34
2022-08-22T13:21:24.110Z,100765.39
2022-08-22T13:23:34.325Z,100763.81
2022-08-22T13:26:08.685Z,100756.88
2022-08-22T13:28:12.339Z,100750.44
2022-08-22T13:30:38.018Z,100743.59
2022-08-22T13:32:45.959Z,100734.17
2022-08-22T13:34:52.398Z,100730.27
2022-08-22T13:36:57.932Z,100729.51
2022-08-22T13:39:35.340Z,100723.13
2022-08-22T13:41:44.405Z,100722.27
2022-08-22T13:44:17.652Z,100718.09
2022-08-22T13:46:23.527Z,100715.02
2022-08-22T13:48:49.901Z,100717.86
2022-08-22T13:51:08.080Z,100722.09
2022-08-22T13:53:48.944Z,100722.02
2022-08-22T13:56:15.413Z,100723.33
2022-08-22T13:58:39.549Z,100723.11
2022-08-22T14:01:37.930Z,100730.17
2022-08-22T14:04:01.046Z,100729.30
2022-08-22T14:06:36.874Z,100733.22
2022-08-22T14:08:36.371Z,100730.30
2022-08-22T14:10:41.938Z,100731.41
2022-08-22T14:12:56.301Z,100727.96
2022-08-22T14:15:00.756Z,100727.23
2022-08-22T14:17:04.295Z,100722.80
2022-08-22T14:19:13.153Z,100721.56
2022-08-22T14:21:26.583Z,100719.04
2022-08-22T14:23:29.386Z,100720.25
2022-08-22T14:25:38.066Z,100719.50
2022-08-22T14:27:59.566Z,100720.17
2022-08-22T14:30:13.926Z,100718.66
2022-08-22T14:32:22.664Z,100716.05
2022-08-22T14:34:29.025Z,100711.73
2022-08-22T14:36:45.813Z,100709.45
2022-08-22T14:38:53.406Z,100707.21
2022-08-22T14:41:01.012Z,100706.34
2022-08-22T14:43:22.197Z,100704.67
2022-08-22T14:45:30.515Z,100703.54
2022-08-22T14:48:29.293Z,100701.64
2022-08-22T14:50:50.219Z,100701.67
2022-08-22T14:53:08.035Z,100699.71
2022-08-22T14:55:15.736Z,100697.80
2022-08-22T14:57:20.206Z,100702.16
2022-08-22T14:59:27.099Z,100702.67
2022-08-22T15:01:32.906Z,100700.88
2022-08-22T15:03:38.027Z,100699.25
2022-08-22T15:05:45.562Z,100695.50
2022-08-22T15:07:54.487Z,100691.54
2022-08-22T15:10:11.924Z,100690.98
2022-08-22T15:12:26.787Z,100687.80
2022-08-22T15:14:37.177Z,100682.02
2022-08-22T15:16:45.454Z,100679.20
2022-08-22T15:18:51.803Z,100679.95
2022-08-22T15:21:04.031Z,100687.02
2022-08-22T15:23:19.961Z,100687.11
2022-08-22T15:25:42.795Z,100688.61
2022-08-22T15:27:54.492Z,100687.80
2022-08-22T15:30:00.073Z,100688.34
2022-08-22T15:32:03.365Z,100685.73
2022-08-22T15:34:08.675Z,100685.05
2022-08-22T15:36:15.894Z,100685.16
2022-08-22T15:38:42.088Z,100681.95
2022-08-22T15:40:49.982Z,100685.62
2022-08-22T15:42:58.161Z,100685.79
2022-08-22T15:45:00.869Z,100684.29
2022-08-22T15:47:34.869Z,100686.61
2022-08-22T15:49:58.321Z,100682.06
2022-08-22T15:52:03.187Z,100677.23
2022-08-22T15:54:24.491Z,100681.09
2022-08-22T15:56:37.650Z,100680.20
2022-08-22T15:58:53.221Z,100681.72
2022-08-22T16:01:19.187Z,100683.27
2022-08-22T16:03:31.877Z,100686.35
2022-08-22T16:05:50.835Z,100689.21
2022-08-22T16:08:11.036Z,100687.96
2022-08-22T16:10:21.795Z,100684.02
2022-08-22T16:12:31.265Z,100681.98
2022-08-22T16:14:35.971Z,100680.52
2022-08-22T16:16:50.015Z,100685.19
2022-08-22T16:18:51.675Z,100682.08
2022-08-22T16:20:54.385Z,100678.66
2022-08-22T16:22:58.799Z,100678.27
2022-08-22T16:25:02.746Z,100676.15
2022-08-22T16:27:22.717Z,100677.27
2022-08-22T16:29:41.505Z,100679.67
2022-08-22T16:31:46.461Z,100674.08
2022-08-22T16:33:48.193Z,100677.06
2022-08-22T16:36:14.955Z,100675.06
2022-08-22T16:38:30.192Z,100676.99
2022-08-22T16:40:46.050Z,100672.05
2022-08-22T16:43:09.855Z,100676.68
2022-08-22T16:45:21.870Z,100675.92
2022-08-22T16:47:54.549Z,100673.23
2022-08-22T16:50:24.388Z,100671.36
2022-08-22T16:52:28.955Z,100670.45
2022-08-22T16:54:46.355Z,100674.85
2022-08-22T16:57:07.769Z,100674.73
2022-08-22T16:59:23.876Z,100674.45
2022-08-22T17:01:29.444Z,100674.60
2022-08-22T17:04:08.537Z,100675.85
2022-08-22T17:06:32.269Z,100680.41
2022-08-22T17:08:36.943Z,100679.14
2022-08-22T17:11:08.079Z,100680.16
2022-08-22T17:13:26.834Z,100681.94
2022-08-22T17:15:48.130Z,100682.84
2022-08-22T17:18:21.849Z,100678.19
2022-08-22T17:20:45.300Z,100678.34
2022-08-22T17:22:58.146Z,100682.90
2022-08-22T17:25:14.992Z,100680.23
2022-08-22T17:27:34.955Z,100683.05
2022-08-22T17:29:53.755Z,100688.05
2022-08-22T17:32:10.798Z,100688.28
2022-08-22T17:34:21.518Z,100687.30
2022-08-22T17:36:27.213Z,100691.70
2022-08-22T17:38:48.040Z,100696.91
2022-08-22T17:41:04.787Z,100701.16
2022-08-22T17:43:48.524Z,100698.39
2022-08-22T17:45:56.609Z,100707.13
2022-08-22T17:48:05.890Z,100705.38
2022-08-22T17:50:20.790Z,100707.64
2022-08-22T17:52:28.362Z,100705.69
2022-08-22T17:54:45.943Z,100706.92
2022-08-22T17:57:05.281Z,100707.35
2022-08-22T17:59:20.928Z,100710.01
2022-08-22T18:01:44.093Z,100707.95
2022-08-22T18:03:59.130Z,100702.63
2022-08-22T18:06:09.283Z,100700.98
2022-08-22T18:10:48.012Z,100704.84
2022-08-22T18:13:23.708Z,100705.70
2022-08-22T18:15:43.897Z,100698.52
2022-08-22T18:18:03.503Z,100705.13
2022-08-22T18:20:16.394Z,100707.73
2022-08-22T18:22:20.236Z,100706.79
2022-08-22T18:24:45.009Z,100702.79
2022-08-22T18:26:52.921Z,100702.76
2022-08-22T18:29:06.197Z,100704.52
2022-08-22T18:31:29.853Z,100698.40
2022-08-22T18:33:50.236Z,100698.20
2022-08-22T18:36:03.855Z,100701.30
2022-08-22T18:38:24.954Z,100699.46
2022-08-22T18:40:49.675Z,100699.84
2022-08-22T18:43:04.417Z,100701.23
2022-08-22T18:45:06.560Z,100703.31
2022-08-22T18:47:16.333Z,100699.11
2022-08-22T18:49:20.935Z,100700.13
2022-08-22T18:51:28.418Z,100695.93
2022-08-22T18:53:45.482Z,100697.45
2022-08-22T18:55:56.233Z,100700.40
2022-08-22T18:58:00.887Z,100698.58
2022-08-22T19:00:17.180Z,100694.36
2022-08-22T19:02:55.596Z,100696.48
2022-08-22T19:05:17.727Z,100700.05
2022-08-22T19:07:28.312Z,100701.02
2022-08-22T19:09:50.815Z,100706.48
2022-08-22T19:11:58.647Z,100704.19
2022-08-22T19:14:31.701Z,100702.21
2022-08-22T19:16:56.066Z,100702.45
2022-08-22T19:19:02.190Z,100703.21
2022-08-22T19:21:39.962Z,100703.30
2022-08-22T19:23:48.099Z,100705.39
2022-08-22T19:26:38.041Z,100706.09
2022-08-22T19:28:39.749Z,100711.35
2022-08-22T19:30:49.570Z,100711.70
2022-08-22T19:32:51.206Z,100715.09
2022-08-22T19:35:21.641Z,100714.36
2022-08-22T19:37:32.281Z,100718.85
2022-08-22T19:39:41.013Z,100722.23
2022-08-22T19:41:53.835Z,100724.27
2022-08-22T19:43:55.507Z,100726.42
2022-08-22T19:45:59.949Z,100727.36
2022-08-22T19:48:11.741Z,100727.90
2022-08-22T19:50:18.502Z,100730.29
2022-08-22T19:52:27.215Z,100729.95
2022-08-22T19:54:30.470Z,100729.20
2022-08-22T19:56:41.105Z,100726.65
2022-08-22T19:58:50.571Z,100727.40
2022-08-22T20:00:59.972Z,100729.45
2022-08-22T20:03:13.087Z,100728.66
2022-08-22T20:05:57.492Z,100728.26
2022-08-22T20:08:13.648Z,100730.15
2022-08-22T20:10:27.593Z,100727.52
2022-08-22T20:12:32.399Z,100730.73
2022-08-22T20:14:36.982Z,100726.35
2022-08-22T20:16:58.514Z,100725.88
2022-08-22T20:19:07.659Z,100724.67
2022-08-22T20:21:09.767Z,100722.58
2022-08-22T20:23:27.127Z,100721.34
2022-08-22T20:25:49.403Z,100723.32
2022-08-22T20:27:53.476Z,100721.66
2022-08-22T20:30:16.530Z,100717.84
2022-08-22T20:32:21.214Z,100715.04
2022-08-22T20:34:29.212Z,100714.21
2022-08-22T20:36:31.169Z,100712.23
2022-08-22T20:38:32.771Z,100714.83
2022-08-22T20:40:56.527Z,100715.29
2022-08-22T20:43:23.161Z,100718.69
2022-08-22T20:45:29.611Z,100722.29
2022-08-22T20:47:41.146Z,100717.04
2022-08-22T20:49:47.428Z,100717.95
2022-08-22T20:51:57.541Z,100713.25
2022-08-22T20:54:15.954Z,100716.15
2022-08-22T20:56:32.016Z,100714.38
2022-08-22T20:58:38.517Z,100712.92
2022-08-22T21:00:44.198Z,100715.82
2022-08-22T21:03:02.109Z,100722.19
2022-08-22T21:05:11.738Z,100726.88
2022-08-22T21:07:31.100Z,100726.70
2022-08-22T21:09:51.353Z,100725.02
2022-08-22T21:11:58.998Z,100726.24
2022-08-22T21:14:17.567Z,100721.85
2022-08-22T21:16:22.717Z,100722.85
2022-08-22T21:18:26.562Z,100725.07
2022-08-22T21:20:32.916Z,100723.21
2022-08-22T21:22:34.726Z,100717.36
2022-08-22T21:24:39.235Z,100716.61
2022-08-22T21:26:59.346Z,100717.55
2022-08-22T21:29:07.457Z,100713.86
2022-08-22T21:31:15.358Z,100711.38
2022-08-22T21:33:23.749Z,100710.02
2022-08-22T21:35:29.613Z,100710.77
2022-08-22T21:37:43.427Z,100717.19
2022-08-22T21:39:49.015Z,100715.27
2022-08-22T21:42:12.382Z,100715.05
2022-08-22T21:44:25.822Z,100718.66
2022-08-22T21:46:31.201Z,100723.02
2022-08-22T21:48:44.044Z,100727.73
2022-08-22T21:50:45.615Z,100729.91
2022-08-22T21:53:01.653Z,100728.34
2022-08-22T21:55:15.805Z,100727.59
2022-08-22T21:57:20.418Z,100727.50
2022-08-22T21:59:51.717Z,100728.03
2022-08-22T22:02:37.351Z,100726.45
2022-08-22T22:04:39.302Z,100727.04
2022-08-22T22:06:40.934Z,100724.52
2022-08-22T22:08:43.009Z,100725.16
2022-08-22T22:10:46.885Z,100722.52
2022-08-22T22:12:51.827Z,100724.23
2022-08-22T22:14:53.622Z,100722.21
2022-08-22T22:16:55.326Z,100722.45
2022-08-22T22:18:58.189Z,100721.94
2022-08-22T22:21:00.448Z,100720.18
2022-08-22T22:23:02.283Z,100722.52
2022-08-22T22:25:04.879Z,100721.55
2022-08-22T22:27:07.625Z,100723.35
2022-08-22T22:29:10.782Z,100726.41
2022-08-22T22:31:12.463Z,100726.98
2022-08-22T22:33:14.258Z,100723.50
2022-08-22T22:35:18.753Z,100721.96
2022-08-22T22:37:20.604Z,100721.45
2022-08-22T22:39:22.689Z,100721.27
2022-08-22T22:41:25.846Z,100720.02
2022-08-22T22:43:27.817Z,100722.71
2022-08-22T22:45:29.879Z,100727.54
2022-08-22T22:47:33.059Z,100729.80
2022-08-22T22:49:37.569Z,100732.69
2022-08-22T22:51:42.447Z,100734.68
2022-08-22T22:53:44.916Z,100734.14
2022-08-22T22:55:59.769Z,100732.45
2022-08-22T22:58:05.592Z,100727.56
2022-08-22T23:00:08.197Z,100729.10
2022-08-22T23:02:13.353Z,100726.11
2022-08-22T23:04:15.019Z,100730.02
2022-08-22T23:06:19.834Z,100733.91
2022-08-22T23:08:21.845Z,100734.42
2022-08-22T23:10:23.695Z,100737.23
2022-08-22T23:12:27.277Z,100736.66
2022-08-22T23:14:30.240Z,100735.80
2022-08-22T23:16:37.000Z,100737.94
2022-08-22T23:18:39.058Z,100738.10
2022-08-22T23:20:40.739Z,100738.74
2022-08-22T23:22:45.059Z,100735.22
2022-08-22T23:24:51.709Z,100732.13
2022-08-22T23:26:53.366Z,100735.02
2022-08-22T23:28:55.917Z,100735.15
2022-08-22T23:31:09.242Z,100736.15
2022-08-22T23:33:10.928Z,100738.26
2022-08-22T23:35:12.785Z,100740.30
2022-08-22T23:37:17.835Z,100740.11
2022-08-22T23:39:21.132Z,100740.59
2022-08-22T23:41:24.078Z,100743.11
2022-08-22T23:43:25.726Z,100740.98
2022-08-22T23:45:27.394Z,100741.06
2022-08-22T23:47:29.118Z,100743.73
2022-08-22T23:49:31.524Z,100747.91
2022-08-22T23:51:34.194Z,100753.03
2022-08-22T23:53:36.016Z,100755.23
2022-08-22T23:55:37.717Z,100757.29
2022-08-22T23:57:41.547Z,100754.46
2022-08-22T23:59:48.023Z,100757.05
